| time (UTC) | temp F | wind direction | speed knots | gust knots | rain 1hr in | rain 24hr in | rain mn in | humidity % | barometer mb |
| 20260505194527 | 52 | 337 | 4.3 | 9.6 | 0.00 | 0.69 | 0.69 | 88 | 1010.4 |
| 20260505193009 | 52 | 345 | 6.1 | 10.4 | 0.00 | 0.69 | 0.69 | 88 | 1010.4 |
| 20260505191508 | 53 | 334 | 4.3 | 8.7 | 0.00 | 0.69 | 0.69 | 88 | 1010.5 |
| 20260505190108 | 53 | 322 | 3.5 | 7.0 | 0.00 | 0.69 | 0.69 | 89 | 1010.2 |
| 20260505184552 | 52 | 332 | 2.6 | 6.1 | 0.00 | 0.69 | 0.69 | 88 | 1010.4 |
| 20260505183050 | 52 | 323 | 1.7 | 4.3 | 0.00 | 0.69 | 0.69 | 89 | 1010.5 |
| 20260505181533 | 52 | 328 | 2.6 | 4.3 | 0.00 | 0.69 | 0.69 | 89 | 1010.7 |
| 20260505180032 | 52 | 327 | 0.9 | 4.3 | 0.00 | 0.69 | 0.69 | 89 | 1010.6 |
| 20260505174520 | 52 | 321 | 1.7 | 5.2 | 0.00 | 0.69 | 0.69 | 90 | 1010.7 |
| 20260505173020 | 52 | 344 | 0.9 | 4.3 | 0.00 | 0.69 | 0.69 | 92 | 1010.5 |
| 20260505171519 | 52 | 334 | 1.7 | 4.3 | 0.00 | 0.69 | 0.69 | 93 | 1010.7 |
| 20260505170025 | 52 | 344 | 1.7 | 4.3 | 0.00 | 0.69 | 0.69 | 93 | 1010.6 |
| 20260505164518 | 52 | 322 | 2.6 | 6.1 | 0.00 | 0.69 | 0.69 | 94 | 1010.5 |
| 20260505163025 | 52 | 9 | 3.5 | 11.3 | 0.01 | 0.69 | 0.69 | 94 | 1009.8 |
| 20260505161517 | 52 | 325 | 4.3 | 9.6 | 0.03 | 0.69 | 0.69 | 94 | 1009.6 |
| 20260505153058 | 50 | 35 | 2.6 | 7.0 | 0.15 | 0.68 | 0.68 | 94 | 1009.7 |
| 20260505151544 | 50 | 346 | 4.3 | 7.8 | 0.17 | 0.66 | 0.66 | 94 | 1010.9 |
| 20260505124548 | 58 | 333 | 0.9 | 7.8 | 0.00 | 0.47 | 0.47 | 92 | 1009.7 |
| 20260505123047 | 58 | 327 | 0.9 | 4.3 | 0.00 | 0.47 | 0.47 | 94 | 1009.6 |
| 20260505121530 | 58 | 344 | 0.0 | 3.5 | 0.00 | 0.47 | 0.47 | 94 | 1009.4 |
| 20260505120029 | 58 | 339 | 0.0 | 5.2 | 0.00 | 0.47 | 0.47 | 94 | 1009.2 |
| 20260505114508 | 58 | 321 | 0.9 | 4.3 | 0.00 | 0.47 | 0.47 | 94 | 1009.1 |
| 20260505113007 | 58 | 319 | 0.9 | 4.3 | 0.00 | 0.47 | 0.47 | 94 | 1008.7 |
| 20260505111550 | 58 | 327 | 0.0 | 0.0 | 0.00 | 0.47 | 0.47 | 94 | 1008.4 |
| 20260505101523 | 58 | 192 | 0.0 | 3.5 | 0.00 | 0.47 | 0.47 | 94 | 1007.6 |
| 20260505100015 | 58 | 150 | 0.0 | 7.0 | 0.00 | 0.47 | 0.47 | 95 | 1007.8 |
| 20260505094601 | 57 | 155 | 1.7 | 4.3 | 0.00 | 0.47 | 0.47 | 95 | 1007.5 |
| 20260505093057 | 57 | 195 | 0.0 | 2.6 | 0.01 | 0.54 | 0.47 | 95 | 1007.6 |
| 20260505091537 | 57 | 212 | 0.0 | 0.0 | 0.02 | 0.54 | 0.47 | 94 | 1007.9 |
| 20260505090036 | 57 | 355 | 0.0 | 0.0 | 0.12 | 0.54 | 0.47 | 93 | 1008.0 |
| 20260505084526 | 57 | 355 | 0.0 | 0.0 | 0.26 | 0.54 | 0.47 | 92 | 1008.1 |
| 20260505083016 | 57 | 355 | 0.0 | 0.0 | 0.32 | 0.56 | 0.46 | 92 | 1008.7 |
| 20260505081558 | 57 | 101 | 0.0 | 0.9 | 0.38 | 0.56 | 0.45 | 91 | 1008.8 |
| 20260505080056 | 58 | 315 | 2.6 | 7.0 | 0.36 | 0.47 | 0.36 | 89 | 1009.2 |
| 20260505074535 | 59 | 342 | 0.0 | 0.9 | 0.21 | 0.32 | 0.21 | 84 | 1008.4 |
| 20260505073031 | 61 | 33 | 0.0 | 4.3 | 0.14 | 0.26 | 0.14 | 80 | 1008.8 |
| 20260505071509 | 64 | 320 | 4.3 | 9.6 | 0.05 | 0.17 | 0.05 | 73 | 1009.1 |
| 20260505070008 | 66 | 344 | 10.4 | 17.4 | 0.00 | 0.12 | 0.00 | 68 | 1009.0 |
| 20260505064553 | 66 | 211 | 3.5 | 6.1 | 0.00 | 0.12 | 0.00 | 69 | 1007.1 |
| 20260505063043 | 66 | 192 | 4.3 | 9.6 | 0.00 | 0.12 | 0.00 | 68 | 1006.7 |
| 20260505061523 | 66 | 182 | 5.2 | 11.3 | 0.00 | 0.12 | 0.00 | 67 | 1006.1 |
| 20260505060019 | 66 | 213 | 5.2 | 10.4 | 0.00 | 0.12 | 0.00 | 66 | 1005.9 |
| 20260505054600 | 67 | 228 | 6.1 | 13.0 | 0.00 | 0.12 | 0.00 | 65 | 1005.6 |
| 20260505053059 | 67 | 226 | 7.0 | 13.0 | 0.00 | 0.12 | 0.00 | 65 | 1005.5 |
| 20260505051539 | 67 | 255 | 6.1 | 12.2 | 0.00 | 0.12 | 0.00 | 65 | 1005.6 |
| 20260505041504 | 68 | 190 | 6.1 | 11.3 | 0.00 | 0.12 | 0.00 | 62 | 1005.3 |
| 20260505040005 | 68 | 163 | 6.1 | 13.9 | 0.00 | 0.12 | 0.00 | 62 | 1005.4 |
| 20260505034609 | 68 | 198 | 7.8 | 13.0 | 0.00 | 0.12 | 0.00 | 61 | 1005.6 |
| 20260505033103 | 68 | 208 | 7.0 | 12.2 | 0.00 | 0.12 | 0.00 | 60 | 1005.5 |
| 20260505031557 | 69 | 217 | 6.1 | 14.8 | 0.00 | 0.12 | 0.00 | 60 | 1005.5 |
| 20260505030055 | 68 | 207 | 7.0 | 14.8 | 0.00 | 0.12 | 0.00 | 61 | 1005.4 |
| 20260505024550 | 69 | 186 | 6.1 | 12.2 | 0.00 | 0.12 | 0.00 | 61 | 1005.5 |
| 20260505023049 | 70 | 177 | 6.1 | 13.9 | 0.00 | 0.12 | 0.12 | 58 | 1005.5 |
| 20260505021534 | 71 | 212 | 8.7 | 20.0 | 0.00 | 0.12 | 0.12 | 55 | 1005.5 |
| 20260505020039 | 71 | 213 | 10.4 | 20.0 | 0.00 | 0.12 | 0.12 | 54 | 1004.7 |
| 20260505014516 | 72 | 193 | 15.6 | 30.4 | 0.00 | 0.12 | 0.12 | 51 | 1003.2 |
| 20260505013011 | 71 | 270 | 12.2 | 19.1 | 0.00 | 0.12 | 0.12 | 53 | 1004.2 |
| 20260505011554 | 71 | 161 | 9.6 | 20.9 | 0.00 | 0.12 | 0.12 | 52 | 1004.3 |
| 20260505010100 | 71 | 218 | 7.0 | 14.8 | 0.00 | 0.12 | 0.12 | 53 | 1005.0 |
| 20260505004534 | 71 | 228 | 6.1 | 13.9 | 0.00 | 0.12 | 0.12 | 52 | 1004.7 |
| 20260505003034 | 71 | 227 | 5.2 | 13.0 | 0.00 | 0.12 | 0.12 | 52 | 1004.7 |
| 20260505001517 | 72 | 238 | 6.1 | 13.0 | 0.00 | 0.12 | 0.12 | 50 | 1004.6 |
| 20260505000019 | 73 | 231 | 6.1 | 11.3 | 0.00 | 0.12 | 0.12 | 50 | 1004.4 |
| 20260504234611 | 73 | 241 | 7.0 | 16.5 | 0.00 | 0.12 | 0.12 | 49 | 1004.7 |
| 20260504233059 | 73 | 160 | 6.1 | 13.0 | 0.00 | 0.12 | 0.12 | 50 | 1004.8 |
| 20260504231539 | 74 | 215 | 6.1 | 11.3 | 0.00 | 0.12 | 0.12 | 50 | 1004.9 |
| 20260504230040 | 74 | 213 | 6.1 | 13.9 | 0.00 | 0.12 | 0.12 | 50 | 1004.7 |
| 20260504224520 | 74 | 200 | 7.8 | 13.0 | 0.00 | 0.12 | 0.12 | 50 | 1004.6 |
| 20260504223020 | 74 | 165 | 9.6 | 14.8 | 0.00 | 0.12 | 0.12 | 51 | 1004.6 |
| 20260504221559 | 74 | 192 | 7.8 | 16.5 | 0.00 | 0.12 | 0.12 | 52 | 1005.1 |
| 20260504220104 | 74 | 190 | 7.8 | 14.8 | 0.00 | 0.12 | 0.12 | 52 | 1005.2 |
| 20260504214541 | 74 | 213 | 7.0 | 17.4 | 0.00 | 0.12 | 0.12 | 53 | 1005.2 |
| 20260504213053 | 72 | 163 | 6.1 | 16.5 | 0.00 | 0.12 | 0.12 | 57 | 1005.3 |
| 20260504211519 | 71 | 187 | 6.1 | 13.0 | 0.00 | 0.12 | 0.12 | 61 | 1005.5 |
| 20260504210017 | 71 | 190 | 4.3 | 11.3 | 0.00 | 0.12 | 0.12 | 62 | 1006.1 |
| 20260504204617 | 71 | 190 | 5.2 | 12.2 | 0.00 | 0.12 | 0.12 | 64 | 1006.6 |
| 20260504203057 | 71 | 190 | 5.2 | 13.0 | 0.00 | 0.12 | 0.12 | 65 | 1006.8 |
| 20260504201557 | 71 | 159 | 4.3 | 10.4 | 0.00 | 0.12 | 0.12 | 67 | 1006.5 |
| 20260504200037 | 69 | 174 | 7.0 | 13.9 | 0.00 | 0.12 | 0.12 | 66 | 1006.9 |